sensor_id;sensor_type;location;lat;lon;timestamp;P1;durP1;ratioP1;P2;durP2;ratioP2
83801;SDS011;73818;51.646;15.140;2024-03-17T00:05:58;2;;;0;;
83801;SDS011;73818;51.646;15.140;2024-03-17T00:12:10;2;;;0;;
83801;SDS011;73818;51.646;15.140;2024-03-17T00:18:24;2;;;0;;
83801;SDS011;73818;51.646;15.140;2024-03-17T00:24:33;2;;;0;;
83801;SDS011;73818;51.646;15.140;2024-03-17T00:30:45;2;;;0;;
83801;SDS011;73818;51.646;15.140;2024-03-17T00:36:57;2;;;0;;
83801;SDS011;73818;51.646;15.140;2024-03-17T00:43:08;2;;;0;;
83801;SDS011;73818;51.646;15.140;2024-03-17T00:49:21;2;;;0;;
83801;SDS011;73818;51.646;15.140;2024-03-17T00:55:32;2;;;0;;
83801;SDS011;73818;51.646;15.140;2024-03-17T01:01:44;2;;;0;;
83801;SDS011;73818;51.646;15.140;2024-03-17T01:07:55;2;;;0;;
83801;SDS011;73818;51.646;15.140;2024-03-17T01:14:07;2;;;0;;
83801;SDS011;73818;51.646;15.140;2024-03-17T01:20:19;2;;;0;;
83801;SDS011;73818;51.646;15.140;2024-03-17T01:26:31;1;;;0;;
83801;SDS011;73818;51.646;15.140;2024-03-17T01:32:42;2;;;0;;
83801;SDS011;73818;51.646;15.140;2024-03-17T01:38:54;1;;;0;;
83801;SDS011;73818;51.646;15.140;2024-03-17T01:45:28;2;;;0;;
83801;SDS011;73818;51.646;15.140;2024-03-17T01:51:17;2;;;0;;
83801;SDS011;73818;51.646;15.140;2024-03-17T01:57:29;2;;;0;;
83801;SDS011;73818;51.646;15.140;2024-03-17T02:03:41;2;;;0;;
83801;SDS011;73818;51.646;15.140;2024-03-17T02:09:52;2;;;0;;
83801;SDS011;73818;51.646;15.140;2024-03-17T02:16:03;2;;;0;;
83801;SDS011;73818;51.646;15.140;2024-03-17T02:22:15;2;;;0;;
83801;SDS011;73818;51.646;15.140;2024-03-17T02:28:26;2;;;0;;
83801;SDS011;73818;51.646;15.140;2024-03-17T02:34:38;2;;;0;;
83801;SDS011;73818;51.646;15.140;2024-03-17T02:40:50;2;;;0;;
83801;SDS011;73818;51.646;15.140;2024-03-17T02:47:02;2;;;0;;
83801;SDS011;73818;51.646;15.140;2024-03-17T02:53:13;2;;;0;;
83801;SDS011;73818;51.646;15.140;2024-03-17T02:59:25;2;;;0;;
83801;SDS011;73818;51.646;15.140;2024-03-17T03:05:36;2;;;0;;
83801;SDS011;73818;51.646;15.140;2024-03-17T03:11:49;2;;;0;;
83801;SDS011;73818;51.646;15.140;2024-03-17T03:18:01;2;;;0;;
83801;SDS011;73818;51.646;15.140;2024-03-17T03:24:13;2;;;0;;
83801;SDS011;73818;51.646;15.140;2024-03-17T03:30:23;2;;;0;;
83801;SDS011;73818;51.646;15.140;2024-03-17T03:36:35;2;;;0;;
83801;SDS011;73818;51.646;15.140;2024-03-17T03:42:47;2;;;0;;
83801;SDS011;73818;51.646;15.140;2024-03-17T03:48:58;2;;;0;;
83801;SDS011;73818;51.646;15.140;2024-03-17T03:55:10;2;;;0;;
83801;SDS011;73818;51.646;15.140;2024-03-17T04:01:21;2;;;0;;
83801;SDS011;73818;51.646;15.140;2024-03-17T04:07:33;2;;;0;;
83801;SDS011;73818;51.646;15.140;2024-03-17T04:13:44;2;;;0;;
83801;SDS011;73818;51.646;15.140;2024-03-17T04:19:56;2;;;0;;
83801;SDS011;73818;51.646;15.140;2024-03-17T04:26:08;2;;;0;;
83801;SDS011;73818;51.646;15.140;2024-03-17T04:32:20;2;;;0;;
83801;SDS011;73818;51.646;15.140;2024-03-17T04:38:31;2;;;0;;
83801;SDS011;73818;51.646;15.140;2024-03-17T04:44:45;2;;;0;;
83801;SDS011;73818;51.646;15.140;2024-03-17T04:50:54;2;;;0;;
83801;SDS011;73818;51.646;15.140;2024-03-17T04:57:07;2;;;0;;
83801;SDS011;73818;51.646;15.140;2024-03-17T05:03:18;2;;;0;;
83801;SDS011;73818;51.646;15.140;2024-03-17T05:09:30;2;;;0;;
83801;SDS011;73818;51.646;15.140;2024-03-17T05:15:42;2;;;0;;
83801;SDS011;73818;51.646;15.140;2024-03-17T05:21:53;1;;;0;;
83801;SDS011;73818;51.646;15.140;2024-03-17T05:28:04;2;;;0;;
83801;SDS011;73818;51.646;15.140;2024-03-17T05:34:17;2;;;0;;
83801;SDS011;73818;51.646;15.140;2024-03-17T05:40:28;2;;;0;;
83801;SDS011;73818;51.646;15.140;2024-03-17T05:46:40;2;;;0;;
83801;SDS011;73818;51.646;15.140;2024-03-17T05:52:52;2;;;0;;
83801;SDS011;73818;51.646;15.140;2024-03-17T05:59:04;2;;;0;;
83801;SDS011;73818;51.646;15.140;2024-03-17T06:05:15;2;;;0;;
83801;SDS011;73818;51.646;15.140;2024-03-17T06:11:27;2;;;0;;
83801;SDS011;73818;51.646;15.140;2024-03-17T06:17:38;2;;;0;;
83801;SDS011;73818;51.646;15.140;2024-03-17T06:23:51;2;;;0;;
83801;SDS011;73818;51.646;15.140;2024-03-17T06:30:03;2;;;0;;
83801;SDS011;73818;51.646;15.140;2024-03-17T06:36:14;2;;;0;;
83801;SDS011;73818;51.646;15.140;2024-03-17T06:42:26;1;;;0;;
83801;SDS011;73818;51.646;15.140;2024-03-17T06:48:38;2;;;0;;
83801;SDS011;73818;51.646;15.140;2024-03-17T06:54:49;2;;;0;;
83801;SDS011;73818;51.646;15.140;2024-03-17T07:01:02;2;;;0;;
83801;SDS011;73818;51.646;15.140;2024-03-17T07:07:13;2;;;0;;
83801;SDS011;73818;51.646;15.140;2024-03-17T07:13:25;2;;;0;;
83801;SDS011;73818;51.646;15.140;2024-03-17T07:19:36;2;;;0;;
83801;SDS011;73818;51.646;15.140;2024-03-17T07:25:54;3;;;0;;
83801;SDS011;73818;51.646;15.140;2024-03-17T07:31:59;2;;;0;;
83801;SDS011;73818;51.646;15.140;2024-03-17T07:38:11;2;;;0;;
83801;SDS011;73818;51.646;15.140;2024-03-17T07:44:23;3;;;0;;
83801;SDS011;73818;51.646;15.140;2024-03-17T07:50:35;3;;;1;;
83801;SDS011;73818;51.646;15.140;2024-03-17T07:56:46;4;;;1;;
83801;SDS011;73818;51.646;15.140;2024-03-17T08:02:58;3;;;1;;
83801;SDS011;73818;51.646;15.140;2024-03-17T08:09:10;5;;;1;;
83801;SDS011;73818;51.646;15.140;2024-03-17T08:15:21;4;;;1;;
83801;SDS011;73818;51.646;15.140;2024-03-17T08:21:33;5;;;1;;
83801;SDS011;73818;51.646;15.140;2024-03-17T08:27:45;5;;;1;;
83801;SDS011;73818;51.646;15.140;2024-03-17T08:33:56;16;;;4;;
83801;SDS011;73818;51.646;15.140;2024-03-17T08:40:08;19;;;4;;
83801;SDS011;73818;51.646;15.140;2024-03-17T08:46:20;15;;;4;;
83801;SDS011;73818;51.646;15.140;2024-03-17T08:52:32;14;;;3;;
83801;SDS011;73818;51.646;15.140;2024-03-17T08:58:43;12;;;3;;
83801;SDS011;73818;51.646;15.140;2024-03-17T09:04:54;13;;;3;;
83801;SDS011;73818;51.646;15.140;2024-03-17T09:11:06;10;;;3;;
83801;SDS011;73818;51.646;15.140;2024-03-17T09:17:18;11;;;3;;
83801;SDS011;73818;51.646;15.140;2024-03-17T09:23:30;10;;;2;;
83801;SDS011;73818;51.646;15.140;2024-03-17T09:29:42;9;;;2;;
83801;SDS011;73818;51.646;15.140;2024-03-17T09:35:58;8;;;2;;
83801;SDS011;73818;51.646;15.140;2024-03-17T09:42:07;8;;;2;;
83801;SDS011;73818;51.646;15.140;2024-03-17T09:48:17;10;;;2;;
83801;SDS011;73818;51.646;15.140;2024-03-17T09:54:29;8;;;2;;
83801;SDS011;73818;51.646;15.140;2024-03-17T10:00:41;7;;;1;;
83801;SDS011;73818;51.646;15.140;2024-03-17T10:06:52;7;;;1;;
83801;SDS011;73818;51.646;15.140;2024-03-17T10:13:05;6;;;1;;
83801;SDS011;73818;51.646;15.140;2024-03-17T10:25:28;4;;;1;;
83801;SDS011;73818;51.646;15.140;2024-03-17T10:31:39;5;;;1;;
83801;SDS011;73818;51.646;15.140;2024-03-17T10:37:56;5;;;1;;
83801;SDS011;73818;51.646;15.140;2024-03-17T10:44:02;4;;;1;;
83801;SDS011;73818;51.646;15.140;2024-03-17T10:50:18;5;;;1;;
83801;SDS011;73818;51.646;15.140;2024-03-17T10:56:26;4;;;1;;
83801;SDS011;73818;51.646;15.140;2024-03-17T11:02:37;4;;;1;;
83801;SDS011;73818;51.646;15.140;2024-03-17T11:08:49;4;;;1;;
83801;SDS011;73818;51.646;15.140;2024-03-17T11:45:58;4;;;0;;
83801;SDS011;73818;51.646;15.140;2024-03-17T11:52:14;4;;;1;;
83801;SDS011;73818;51.646;15.140;2024-03-17T11:58:22;3;;;0;;
83801;SDS011;73818;51.646;15.140;2024-03-17T12:04:38;3;;;1;;
83801;SDS011;73818;51.646;15.140;2024-03-17T12:10:49;4;;;1;;
83801;SDS011;73818;51.646;15.140;2024-03-17T12:16:59;3;;;0;;
83801;SDS011;73818;51.646;15.140;2024-03-17T12:23:11;3;;;1;;
83801;SDS011;73818;51.646;15.140;2024-03-17T12:35:32;3;;;0;;
83801;SDS011;73818;51.646;15.140;2024-03-17T12:41:45;3;;;1;;
83801;SDS011;73818;51.646;15.140;2024-03-17T12:47:56;4;;;1;;
83801;SDS011;73818;51.646;15.140;2024-03-17T13:00:21;3;;;0;;
83801;SDS011;73818;51.646;15.140;2024-03-17T13:06:31;2;;;0;;
83801;SDS011;73818;51.646;15.140;2024-03-17T13:12:47;3;;;0;;
83801;SDS011;73818;51.646;15.140;2024-03-17T13:18:55;2;;;0;;
83801;SDS011;73818;51.646;15.140;2024-03-17T13:25:12;2;;;0;;
83801;SDS011;73818;51.646;15.140;2024-03-17T13:31:18;2;;;0;;
83801;SDS011;73818;51.646;15.140;2024-03-17T13:37:30;2;;;0;;
83801;SDS011;73818;51.646;15.140;2024-03-17T13:43:41;3;;;0;;
83801;SDS011;73818;51.646;15.140;2024-03-17T13:49:53;2;;;0;;
83801;SDS011;73818;51.646;15.140;2024-03-17T13:56:05;2;;;0;;
83801;SDS011;73818;51.646;15.140;2024-03-17T14:02:16;2;;;0;;
83801;SDS011;73818;51.646;15.140;2024-03-17T14:08:28;3;;;1;;
83801;SDS011;73818;51.646;15.140;2024-03-17T14:14:39;3;;;0;;
83801;SDS011;73818;51.646;15.140;2024-03-17T14:20:51;3;;;0;;
83801;SDS011;73818;51.646;15.140;2024-03-17T14:27:03;3;;;1;;
83801;SDS011;73818;51.646;15.140;2024-03-17T14:33:14;3;;;1;;
83801;SDS011;73818;51.646;15.140;2024-03-17T14:39:27;5;;;1;;
83801;SDS011;73818;51.646;15.140;2024-03-17T14:45:38;4;;;1;;
83801;SDS011;73818;51.646;15.140;2024-03-17T14:51:50;5;;;1;;
83801;SDS011;73818;51.646;15.140;2024-03-17T14:58:01;5;;;1;;
83801;SDS011;73818;51.646;15.140;2024-03-17T15:04:12;5;;;1;;
83801;SDS011;73818;51.646;15.140;2024-03-17T15:10:24;6;;;1;;
83801;SDS011;73818;51.646;15.140;2024-03-17T15:16:37;5;;;1;;
83801;SDS011;73818;51.646;15.140;2024-03-17T15:22:48;6;;;1;;
83801;SDS011;73818;51.646;15.140;2024-03-17T15:29:00;5;;;1;;
83801;SDS011;73818;51.646;15.140;2024-03-17T15:35:11;5;;;1;;
83801;SDS011;73818;51.646;15.140;2024-03-17T15:41:24;6;;;1;;
83801;SDS011;73818;51.646;15.140;2024-03-17T15:47:36;5;;;1;;
83801;SDS011;73818;51.646;15.140;2024-03-17T15:53:47;5;;;1;;
83801;SDS011;73818;51.646;15.140;2024-03-17T15:59:59;5;;;1;;
83801;SDS011;73818;51.646;15.140;2024-03-17T16:06:11;5;;;1;;
83801;SDS011;73818;51.646;15.140;2024-03-17T16:12:22;5;;;1;;
83801;SDS011;73818;51.646;15.140;2024-03-17T16:18:33;5;;;1;;
83801;SDS011;73818;51.646;15.140;2024-03-17T16:24:45;4;;;1;;
83801;SDS011;73818;51.646;15.140;2024-03-17T16:30:56;4;;;1;;
83801;SDS011;73818;51.646;15.140;2024-03-17T16:37:08;15;;;3;;
83801;SDS011;73818;51.646;15.140;2024-03-17T16:43:24;85;;;15;;
83801;SDS011;73818;51.646;15.140;2024-03-17T16:49:32;57;;;11;;
83801;SDS011;73818;51.646;15.140;2024-03-17T16:55:43;48;;;11;;
83801;SDS011;73818;51.646;15.140;2024-03-17T17:01:54;43;;;10;;
83801;SDS011;73818;51.646;15.140;2024-03-17T17:08:06;37;;;9;;
83801;SDS011;73818;51.646;15.140;2024-03-17T17:14:17;32;;;7;;
83801;SDS011;73818;51.646;15.140;2024-03-17T17:20:29;27;;;6;;
83801;SDS011;73818;51.646;15.140;2024-03-17T17:26:40;19;;;4;;
83801;SDS011;73818;51.646;15.140;2024-03-17T17:32:53;23;;;5;;
83801;SDS011;73818;51.646;15.140;2024-03-17T17:39:04;16;;;4;;
83801;SDS011;73818;51.646;15.140;2024-03-17T17:45:16;15;;;4;;
83801;SDS011;73818;51.646;15.140;2024-03-17T17:51:28;13;;;3;;
83801;SDS011;73818;51.646;15.140;2024-03-17T17:57:39;12;;;3;;
83801;SDS011;73818;51.646;15.140;2024-03-17T18:03:51;11;;;3;;
83801;SDS011;73818;51.646;15.140;2024-03-17T18:10:02;11;;;3;;
83801;SDS011;73818;51.646;15.140;2024-03-17T18:16:17;11;;;3;;
83801;SDS011;73818;51.646;15.140;2024-03-17T18:22:26;11;;;2;;
83801;SDS011;73818;51.646;15.140;2024-03-17T18:28:38;10;;;3;;
83801;SDS011;73818;51.646;15.140;2024-03-17T18:34:50;8;;;2;;
83801;SDS011;73818;51.646;15.140;2024-03-17T18:41:03;9;;;2;;
83801;SDS011;73818;51.646;15.140;2024-03-17T18:47:14;8;;;2;;
83801;SDS011;73818;51.646;15.140;2024-03-17T18:53:25;9;;;2;;
83801;SDS011;73818;51.646;15.140;2024-03-17T18:59:37;8;;;2;;
83801;SDS011;73818;51.646;15.140;2024-03-17T19:05:49;8;;;2;;
83801;SDS011;73818;51.646;15.140;2024-03-17T19:12:01;9;;;2;;
83801;SDS011;73818;51.646;15.140;2024-03-17T19:18:12;7;;;2;;
83801;SDS011;73818;51.646;15.140;2024-03-17T19:24:23;7;;;2;;
83801;SDS011;73818;51.646;15.140;2024-03-17T19:33:27;7;;;2;;
83801;SDS011;73818;51.646;15.140;2024-03-17T19:39:39;7;;;2;;
83801;SDS011;73818;51.646;15.140;2024-03-17T19:52:03;7;;;2;;
83801;SDS011;73818;51.646;15.140;2024-03-17T19:58:14;6;;;2;;
83801;SDS011;73818;51.646;15.140;2024-03-17T20:04:26;6;;;2;;
83801;SDS011;73818;51.646;15.140;2024-03-17T20:10:37;6;;;2;;
83801;SDS011;73818;51.646;15.140;2024-03-17T20:16:49;7;;;3;;
83801;SDS011;73818;51.646;15.140;2024-03-17T20:23:01;6;;;2;;
83801;SDS011;73818;51.646;15.140;2024-03-17T20:29:12;5;;;2;;
83801;SDS011;73818;51.646;15.140;2024-03-17T20:35:24;6;;;2;;
83801;SDS011;73818;51.646;15.140;2024-03-17T20:41:36;5;;;2;;
83801;SDS011;73818;51.646;15.140;2024-03-17T20:47:48;5;;;2;;
83801;SDS011;73818;51.646;15.140;2024-03-17T20:53:59;4;;;2;;
83801;SDS011;73818;51.646;15.140;2024-03-17T21:00:20;6;;;2;;
83801;SDS011;73818;51.646;15.140;2024-03-17T21:06:23;5;;;2;;
83801;SDS011;73818;51.646;15.140;2024-03-17T21:12:34;5;;;2;;
83801;SDS011;73818;51.646;15.140;2024-03-17T21:18:46;4;;;2;;
83801;SDS011;73818;51.646;15.140;2024-03-17T21:24:58;5;;;2;;
83801;SDS011;73818;51.646;15.140;2024-03-17T21:31:09;5;;;2;;
83801;SDS011;73818;51.646;15.140;2024-03-17T21:37:24;4;;;2;;
83801;SDS011;73818;51.646;15.140;2024-03-17T21:43:32;4;;;2;;
83801;SDS011;73818;51.646;15.140;2024-03-17T21:49:44;5;;;2;;
83801;SDS011;73818;51.646;15.140;2024-03-17T21:55:56;4;;;1;;
83801;SDS011;73818;51.646;15.140;2024-03-17T22:02:07;4;;;1;;
83801;SDS011;73818;51.646;15.140;2024-03-17T22:08:19;4;;;2;;
83801;SDS011;73818;51.646;15.140;2024-03-17T22:14:31;4;;;2;;
83801;SDS011;73818;51.646;15.140;2024-03-17T22:20:42;4;;;2;;
83801;SDS011;73818;51.646;15.140;2024-03-17T22:26:54;11;;;2;;
83801;SDS011;73818;51.646;15.140;2024-03-17T22:33:06;4;;;1;;
83801;SDS011;73818;51.646;15.140;2024-03-17T22:39:17;5;;;2;;
83801;SDS011;73818;51.646;15.140;2024-03-17T22:45:28;4;;;2;;
83801;SDS011;73818;51.646;15.140;2024-03-17T22:51:40;5;;;1;;
83801;SDS011;73818;51.646;15.140;2024-03-17T22:57:52;6;;;2;;
83801;SDS011;73818;51.646;15.140;2024-03-17T23:04:03;6;;;2;;
83801;SDS011;73818;51.646;15.140;2024-03-17T23:10:15;8;;;2;;
83801;SDS011;73818;51.646;15.140;2024-03-17T23:16:27;6;;;2;;
83801;SDS011;73818;51.646;15.140;2024-03-17T23:22:38;5;;;2;;
83801;SDS011;73818;51.646;15.140;2024-03-17T23:28:52;5;;;2;;
83801;SDS011;73818;51.646;15.140;2024-03-17T23:35:03;5;;;1;;
83801;SDS011;73818;51.646;15.140;2024-03-17T23:41:13;5;;;2;;
83801;SDS011;73818;51.646;15.140;2024-03-17T23:47:25;4;;;2;;
83801;SDS011;73818;51.646;15.140;2024-03-17T23:53:36;4;;;2;;
83801;SDS011;73818;51.646;15.140;2024-03-17T23:59:48;5;;;1;;
